全部
Onslow Airport (Onslow, Western Australia) ONS 天气
|
Onslow, Western Australia (ONS / YOLW)
晴天
微风 |
|
20 °C |
ONS终端机场天气预报
| Date | Time (AWST) | Flight Rules | Wind Dir. | Speed | Type | Height AGL (ft) | Visibility | Remarks | ||||||
|---|---|---|---|---|---|---|---|---|---|---|---|---|---|---|
ONS近期METAR历史数据
| Date | Time (AWST) | Flight Rules | Wind Dir. | Speed | Type | Height AGL (ft) | Visibility | Temp (°C) | Temp (°F) | Dew Point (°C) | Dew Point (°F) | Rel. Humid. | Pressure | Density Altitude | Remarks |
|---|---|---|---|---|---|---|---|---|---|---|---|---|---|---|---|
| 06-五月 | 02:00 | VFR | 190° | 8 kt | 10000 meters | 20° | 68° | 15° | 59° | 73% | 1016 mb | 531 ft | |||
| 06-五月 | 01:00 | VFR | 190° | 7 kt | 10000 meters | 20° | 68° | 15° | 59° | 73% | 1016 mb | 531 ft | |||
| 06-五月 | 00:00 | VFR | 210° | 7 kt | 10000 meters | 21° | 69° | 16° | 60° | 73% | 1017 mb | 621 ft | |||
| 05-五月 | 23:00 | VFR | 210° | 5 kt | 10000 meters | 21° | 69° | 15° | 59° | 69% | 1017 mb | 621 ft | |||
| 05-五月 | 22:00 | VFR | 210° | 5 kt | 10000 meters | 22° | 71° | 16° | 60° | 69% | 1017 mb | 741 ft | |||
| 05-五月 | 21:00 | VFR | 170° | 4 kt | 10000 meters | 22° | 71° | 17° | 62° | 73% | 1017 mb | 741 ft | |||
| 05-五月 | 20:00 | VFR | 240° | 5 kt | 10000 meters | 23° | 73° | 15° | 59° | 61% | 1017 mb | 861 ft | |||
| 05-五月 | 19:00 | VFR | 310° | 3 kt | 10000 meters | 24° | 75° | 15° | 59° | 57% | 1016 mb | 1,011 ft | |||
| 05-五月 | 18:00 | VFR | 310° | 6 kt | 10000 meters | 25° | 77° | 14° | 57° | 50% | 1016 mb | 1,131 ft | |||
| 05-五月 | 17:00 | VFR | 330° | 10 kt | 10000 meters | 27° | 80° | 13° | 55° | 42% | 1015 mb | 1,400 ft | |||
| 05-五月 | 16:00 | VFR | 340° | 11 kt | 10000 meters | 28° | 82° | 13° | 55° | 40% | 1015 mb | 1,520 ft | |||
| 05-五月 | 15:00 | VFR | 360° | 9 kt | 10000 meters | 29° | 84° | 10° | 50° | 31% | 1015 mb | 1,640 ft | |||
| 05-五月 | 14:00 | VFR | 10° | 10 kt | 10000 meters | 29° | 84° | 11° | 51° | 33% | 1015 mb | 1,640 ft | |||
| 05-五月 | 13:00 | VFR | 10° | 9 kt | 10000 meters | 29° | 84° | 9° | 48° | 29% | 1017 mb | 1,581 ft | |||
| 05-五月 | 12:00 | VFR | 50° | 9 kt | 10000 meters | 29° | 84° | 7° | 44° | 25% | 1017 mb | 1,581 ft | |||
| 05-五月 | 11:00 | VFR | 50° | 11 kt | 10000 meters | 28° | 82° | 6° | 42° | 25% | 1018 mb | 1,431 ft | |||
| 05-五月 | 10:00 | VFR | 70° | 13 kt | 10000 meters | 27° | 80° | 6° | 42° | 26% | 1018 mb | 1,311 ft | |||
| 05-五月 | 09:00 | VFR | 70° | 11 kt | 10000 meters | 24° | 75° | 6° | 42° | 31% | 1019 mb | 922 ft | |||
| 05-五月 | 08:00 | VFR | 80° | 9 kt | 10000 meters | 23° | 73° | 9° | 48° | 41% | 1018 mb | 831 ft | |||
| 05-五月 | 07:00 | VFR | 60° | 8 kt | 10000 meters | 21° | 69° | 8° | 46° | 43% | 1017 mb | 621 ft | |||
| 05-五月 | 06:00 | VFR | 60° | 13 kt | 10000 meters | 23° | 73° | 8° | 46° | 38% | 1016 mb | 891 ft | |||
| 05-五月 | 05:00 | VFR | 90° | 15 kt | 10000 meters | 23° | 73° | 10° | 50° | 44% | 1016 mb | 891 ft | |||
| 05-五月 | 04:00 | VFR | 60° | 5 kt | 10000 meters | 21° | 69° | 18° | 64° | 83% | 1016 mb | 651 ft | |||
| 05-五月 | 03:00 | VFR | 140° | 5 kt | 10000 meters | 21° | 69° | 17° | 62° | 78% | 1015 mb | 680 ft |
登录
| 您的浏览器不支持. 升级您的浏览器 |
